createdAt,value
2022-11-04T00:02:11.597Z,96757.75
2022-11-04T00:06:13.914Z,96756.81
2022-11-04T00:10:16.006Z,96749.03
2022-11-04T00:14:18.955Z,96759.34
2022-11-04T00:18:21.044Z,96761.97
2022-11-04T00:22:41.935Z,96776.09
2022-11-04T00:27:02.655Z,96789.34
2022-11-04T00:31:25.716Z,96786.72
2022-11-04T00:35:27.830Z,96779.88
2022-11-04T00:39:30.249Z,96785.25
2022-11-04T00:43:32.271Z,96778.19
2022-11-04T00:47:34.308Z,96782.34
2022-11-04T00:51:36.316Z,96779.75
2022-11-04T00:55:38.401Z,96777.19
2022-11-04T00:59:41.343Z,96782.53
2022-11-04T01:03:44.534Z,96781.19
2022-11-04T01:07:46.572Z,96768.91
2022-11-04T01:11:48.628Z,96773.41
2022-11-04T01:15:50.643Z,96772.75
2022-11-04T01:19:52.924Z,96795.81
2022-11-04T01:23:55.234Z,96791.88
2022-11-04T01:27:57.260Z,96810.00
2022-11-04T01:31:59.349Z,96793.50
2022-11-04T01:36:01.959Z,96790.03
2022-11-04T01:40:04.360Z,96818.16
2022-11-04T01:44:44.043Z,96818.31
2022-11-04T01:48:46.422Z,96832.56
2022-11-04T01:52:52.872Z,96819.72
2022-11-04T01:56:55.874Z,96825.25
2022-11-04T02:00:58.208Z,96830.78
2022-11-04T02:05:00.287Z,96825.91
2022-11-04T02:09:02.318Z,96847.38
2022-11-04T02:13:05.786Z,96835.75
2022-11-04T02:17:25.347Z,96849.41
2022-11-04T02:22:06.101Z,96810.41
2022-11-04T02:26:26.439Z,96820.59
2022-11-04T02:30:42.514Z,96827.22
2022-11-04T02:35:00.114Z,96833.00
2022-11-04T02:39:08.586Z,96834.31
2022-11-04T02:43:15.299Z,96822.78
2022-11-04T02:47:23.517Z,96820.44
2022-11-04T02:51:31.518Z,96828.47
2022-11-04T02:55:39.819Z,96831.44
2022-11-04T02:59:48.330Z,96840.50
2022-11-04T03:03:55.760Z,96852.75
2022-11-04T03:08:02.423Z,96864.91
2022-11-04T03:12:09.892Z,96866.75
2022-11-04T03:16:17.414Z,96875.91
2022-11-04T03:20:24.669Z,96881.47
2022-11-04T03:24:27.367Z,96879.78
2022-11-04T03:28:50.469Z,96881.66
2022-11-04T03:33:23.543Z,96879.28
2022-11-04T03:37:25.627Z,96887.50
2022-11-04T03:41:36.660Z,96886.19
2022-11-04T03:45:39.347Z,96916.78
2022-11-04T03:49:41.651Z,96900.19
2022-11-04T03:53:43.946Z,96910.72
2022-11-04T03:58:09.243Z,96917.75
2022-11-04T04:02:20.251Z,96928.44
2022-11-04T04:06:29.983Z,96913.00
2022-11-04T04:10:42.873Z,96902.78
2022-11-04T04:14:58.811Z,96916.19
2022-11-04T04:19:21.310Z,96915.72
2022-11-04T04:23:47.192Z,96931.03
2022-11-04T04:27:51.588Z,96917.44
2022-11-04T04:31:57.794Z,96910.56
2022-11-04T04:36:00.716Z,96904.72
2022-11-04T04:40:25.018Z,96923.09
2022-11-04T04:44:47.274Z,96945.34
2022-11-04T04:48:49.256Z,96942.44
2022-11-04T04:52:54.888Z,96922.19
2022-11-04T04:56:56.918Z,96929.56
2022-11-04T05:00:58.976Z,96937.66
2022-11-04T05:05:01.393Z,96934.25
2022-11-04T05:09:03.857Z,96930.13
2022-11-04T05:13:38.227Z,96923.59
2022-11-04T05:17:40.215Z,96923.09
2022-11-04T05:21:42.465Z,96931.84
2022-11-04T05:25:44.501Z,96920.56
2022-11-04T05:29:46.520Z,96940.13
2022-11-04T05:33:48.529Z,96934.13
2022-11-04T05:37:50.623Z,96943.66
2022-11-04T05:41:52.643Z,96952.88
2022-11-04T05:45:55.332Z,96949.66
2022-11-04T05:49:57.384Z,96937.66
2022-11-04T05:54:00.066Z,96931.78
2022-11-04T05:58:02.100Z,96928.88
2022-11-04T06:02:04.367Z,96933.41
2022-11-04T06:06:06.465Z,96925.56
2022-11-04T06:10:08.898Z,96929.03
2022-11-04T06:14:15.987Z,96925.22
2022-11-04T06:18:20.475Z,96918.84
2022-11-04T06:22:22.633Z,96924.06
2022-11-04T06:26:28.295Z,96920.72
2022-11-04T06:30:30.596Z,96929.28
2022-11-04T06:34:32.598Z,96941.44
2022-11-04T06:38:36.886Z,96945.34
2022-11-04T06:42:38.969Z,96957.50
2022-11-04T06:46:42.685Z,96957.25
2022-11-04T06:50:44.709Z,96965.69
2022-11-04T06:54:47.914Z,96972.19
2022-11-04T06:58:51.106Z,96984.69
2022-11-04T07:02:53.218Z,96992.28
2022-11-04T07:06:55.226Z,96993.91
2022-11-04T07:10:57.223Z,96993.31
2022-11-04T07:14:59.395Z,96984.00
2022-11-04T07:19:01.436Z,96980.72
2022-11-04T07:23:03.435Z,96980.69
2022-11-04T07:27:07.524Z,96989.13
2022-11-04T07:31:11.828Z,96992.00
2022-11-04T07:35:14.095Z,96985.00
2022-11-04T07:39:16.154Z,96988.13
2022-11-04T07:43:18.494Z,96998.78
2022-11-04T07:47:22.060Z,97007.88
2022-11-04T07:51:25.417Z,97011.28
2022-11-04T07:55:27.522Z,97008.66
2022-11-04T07:59:29.667Z,97014.63
2022-11-04T08:03:31.862Z,97003.84
2022-11-04T08:07:34.043Z,97012.09
2022-11-04T08:11:36.423Z,97008.88
2022-11-04T08:15:38.447Z,97021.38
2022-11-04T08:19:40.546Z,97019.66
2022-11-04T08:23:42.644Z,97015.09
2022-11-04T08:27:44.691Z,97025.56
2022-11-04T08:31:46.751Z,97022.69
2022-11-04T08:35:49.049Z,97028.06
2022-11-04T08:39:51.099Z,97032.59
2022-11-04T08:43:53.297Z,97024.09
2022-11-04T08:47:55.356Z,97021.03
2022-11-04T08:51:59.704Z,97020.47
2022-11-04T08:56:13.541Z,97020.84
2022-11-04T09:00:16.892Z,97019.59
2022-11-04T09:04:19.841Z,97008.56
2022-11-04T09:08:21.863Z,97014.47
2022-11-04T09:12:23.963Z,97017.00
2022-11-04T09:16:25.995Z,97017.44
2022-11-04T09:20:28.360Z,97022.25
2022-11-04T09:24:30.492Z,97027.31
2022-11-04T09:28:32.520Z,97022.63
2022-11-04T09:32:34.536Z,97035.91
2022-11-04T09:36:36.585Z,97032.72
2022-11-04T09:40:38.841Z,97035.34
2022-11-04T09:45:20.027Z,97041.34
2022-11-04T09:49:16.912Z,97026.16
2022-11-04T09:53:29.426Z,97041.72
2022-11-04T09:57:33.008Z,97039.72
2022-11-04T10:01:44.536Z,97044.53
2022-11-04T10:05:52.327Z,97058.22
2022-11-04T10:10:07.855Z,97054.44
2022-11-04T10:14:49.719Z,97061.91
2022-11-04T10:19:29.514Z,97070.66
2022-11-04T10:23:42.858Z,97064.38
2022-11-04T10:27:47.038Z,97054.59
2022-11-04T10:31:52.454Z,97053.66
2022-11-04T10:35:58.490Z,97046.34
2022-11-04T10:40:17.205Z,97036.59
2022-11-04T10:44:28.961Z,97031.84
2022-11-04T10:48:43.633Z,97029.19
2022-11-04T10:52:45.639Z,97025.94
2022-11-04T10:56:51.196Z,97026.44
2022-11-04T11:00:55.724Z,97018.97
2022-11-04T11:05:12.098Z,97010.78
2022-11-04T11:09:43.572Z,97007.66
2022-11-04T11:13:46.628Z,97016.28
2022-11-04T11:17:48.894Z,97013.97
2022-11-04T11:21:53.721Z,97016.13
2022-11-04T11:25:55.821Z,97010.22
2022-11-04T11:29:57.886Z,97005.38
2022-11-04T11:34:04.200Z,97005.88
2022-11-04T11:38:07.127Z,97011.03
2022-11-04T11:42:17.454Z,97008.00
2022-11-04T11:46:31.915Z,97006.38
2022-11-04T11:50:35.687Z,97000.63
2022-11-04T11:54:39.605Z,97006.06
2022-11-04T12:03:24.056Z,97008.44
2022-11-04T12:12:42.414Z,97014.97
2022-11-04T12:17:00.107Z,97013.19
2022-11-04T12:21:08.175Z,97015.69
2022-11-04T12:25:45.235Z,97012.88
2022-11-04T12:30:06.657Z,97012.88
2022-11-04T12:34:29.740Z,97012.03
2022-11-04T12:38:34.834Z,97007.03
2022-11-04T12:42:42.915Z,97007.47
2022-11-04T12:47:06.161Z,97015.81
2022-11-04T12:51:28.162Z,97002.94
2022-11-04T12:55:44.222Z,97010.91
2022-11-04T13:00:01.022Z,97009.72
2022-11-04T13:04:11.814Z,97009.28
2022-11-04T13:08:31.763Z,97014.06
2022-11-04T13:12:41.777Z,97019.88
2022-11-04T13:16:47.010Z,97025.94
2022-11-04T13:21:02.233Z,97032.28
2022-11-04T13:25:20.045Z,97038.31
2022-11-04T13:29:22.349Z,97037.97
2022-11-04T13:33:43.302Z,97044.41
2022-11-04T13:38:00.553Z,97054.03
2022-11-04T13:42:32.561Z,97057.50
2022-11-04T13:46:35.074Z,97057.59
2022-11-04T13:50:40.744Z,97069.28
2022-11-04T13:54:45.879Z,97075.91
2022-11-04T13:58:53.561Z,97082.97
2022-11-04T14:03:19.857Z,97086.19
2022-11-04T14:08:02.808Z,97095.59
2022-11-04T14:12:11.078Z,97100.16
2022-11-04T14:16:39.854Z,97102.91
2022-11-04T14:21:02.276Z,97110.53
2022-11-04T14:25:44.227Z,97112.06
2022-11-04T14:29:51.300Z,97125.66
2022-11-04T14:33:57.832Z,97117.94
2022-11-04T14:38:28.725Z,97125.34
2022-11-04T14:42:52.569Z,97133.41
2022-11-04T14:47:01.934Z,97130.44
2022-11-04T14:51:05.286Z,97143.97
2022-11-04T14:55:10.886Z,97144.19
2022-11-04T14:59:21.957Z,97143.63
2022-11-04T15:04:09.411Z,97146.66
2022-11-04T15:07:49.464Z,97151.56
2022-11-04T15:12:20.566Z,97167.91
2022-11-04T15:16:26.433Z,97168.31
2022-11-04T15:20:31.248Z,97178.44
2022-11-04T15:24:35.080Z,97183.69
2022-11-04T15:28:46.689Z,97195.72
2022-11-04T15:33:03.277Z,97190.56
2022-11-04T15:37:07.663Z,97204.31
2022-11-04T15:41:28.415Z,97208.44
2022-11-04T15:45:33.472Z,97209.94
2022-11-04T15:49:35.467Z,97216.19
2022-11-04T15:53:50.545Z,97222.72
2022-11-04T15:57:54.274Z,97220.78
2022-11-04T16:01:57.088Z,97217.38
2022-11-04T16:06:07.469Z,97228.97
2022-11-04T16:10:31.620Z,97226.25
2022-11-04T16:14:33.896Z,97223.81
2022-11-04T16:18:39.842Z,97223.28
2022-11-04T16:22:43.705Z,97220.19
2022-11-04T16:26:46.696Z,97228.22
2022-11-04T16:30:58.697Z,97235.50
2022-11-04T16:35:06.948Z,97244.63
2022-11-04T16:39:09.093Z,97253.34
2022-11-04T16:43:12.300Z,97258.72
2022-11-04T16:47:14.621Z,97264.75
2022-11-04T16:51:20.016Z,97276.16
2022-11-04T16:55:24.475Z,97276.56
2022-11-04T16:59:26.455Z,97282.78
2022-11-04T17:03:28.497Z,97284.66
2022-11-04T17:07:51.698Z,97290.50
2022-11-04T17:11:52.718Z,97286.63
2022-11-04T17:15:54.838Z,97294.50
2022-11-04T17:19:56.841Z,97299.41
2022-11-04T17:23:58.892Z,97302.72
2022-11-04T17:28:00.921Z,97306.13
2022-11-04T17:32:04.106Z,97303.56
2022-11-04T17:36:07.805Z,97295.34
2022-11-04T17:40:15.978Z,97309.56
2022-11-04T17:44:18.198Z,97317.78
2022-11-04T17:48:20.409Z,97319.94
2022-11-04T17:52:23.364Z,97325.97
2022-11-04T17:56:25.773Z,97326.66
2022-11-04T18:00:29.647Z,97333.34
2022-11-04T18:04:31.922Z,97334.28
2022-11-04T18:08:34.142Z,97330.56
2022-11-04T18:12:41.215Z,97342.41
2022-11-04T18:16:45.636Z,97347.75
2022-11-04T18:20:48.222Z,97345.25
2022-11-04T18:24:50.410Z,97353.06
2022-11-04T18:28:52.549Z,97355.09
2022-11-04T18:32:54.579Z,97365.69
2022-11-04T18:36:58.102Z,97370.91
2022-11-04T18:41:00.294Z,97370.00
2022-11-04T18:45:02.481Z,97381.22
2022-11-04T18:49:04.555Z,97379.38
2022-11-04T18:53:06.712Z,97386.28
2022-11-04T18:57:11.518Z,97388.84
2022-11-04T19:01:24.604Z,97394.06
2022-11-04T19:05:26.731Z,97401.88
2022-11-04T19:13:53.423Z,97419.72
2022-11-04T19:17:55.516Z,97423.97
2022-11-04T19:21:57.603Z,97426.06
2022-11-04T19:26:04.969Z,97438.28
2022-11-04T19:30:07.592Z,97439.69
2022-11-04T19:34:09.937Z,97443.63
2022-11-04T19:38:12.406Z,97439.94
2022-11-04T19:42:34.438Z,97442.19
2022-11-04T19:46:36.815Z,97452.34
2022-11-04T19:50:48.971Z,97452.34
2022-11-04T19:54:51.163Z,97458.44
2022-11-04T19:58:53.316Z,97463.47
2022-11-04T20:02:55.752Z,97463.69
2022-11-04T20:06:57.774Z,97469.94
2022-11-04T20:11:03.016Z,97484.16
2022-11-04T20:15:05.625Z,97483.28
2022-11-04T20:19:09.186Z,97484.72
2022-11-04T20:23:11.655Z,97493.25
2022-11-04T20:27:15.175Z,97501.03
2022-11-04T20:31:23.622Z,97516.38
2022-11-04T20:35:25.994Z,97517.38
2022-11-04T20:39:28.015Z,97518.44
2022-11-04T20:43:33.102Z,97521.44
2022-11-04T20:47:35.984Z,97526.19
2022-11-04T20:51:48.629Z,97527.94
2022-11-04T20:55:52.339Z,97534.09
2022-11-04T20:59:54.353Z,97538.53
2022-11-04T21:04:03.615Z,97542.09
2022-11-04T21:08:05.715Z,97557.38
2022-11-04T21:12:07.705Z,97557.50
2022-11-04T21:16:12.495Z,97553.97
2022-11-04T21:20:14.579Z,97562.31
2022-11-04T21:24:16.861Z,97574.47
2022-11-04T21:28:18.932Z,97577.31
2022-11-04T21:32:20.941Z,97579.00
2022-11-04T21:36:23.237Z,97586.03
2022-11-04T21:40:25.343Z,97587.09
2022-11-04T21:44:27.629Z,97592.72
2022-11-04T21:48:34.203Z,97588.78
2022-11-04T21:52:36.285Z,97594.28
2022-11-04T21:56:38.364Z,97595.28
2022-11-04T22:00:40.377Z,97598.84
2022-11-04T22:04:42.481Z,97601.41
2022-11-04T22:08:49.231Z,97612.78
2022-11-04T22:12:51.881Z,97617.13
2022-11-04T22:16:53.989Z,97614.44
2022-11-04T22:20:56.613Z,97613.59
2022-11-04T22:25:04.692Z,97626.38
2022-11-04T22:29:06.780Z,97626.25
2022-11-04T22:33:09.457Z,97623.84
2022-11-04T22:37:11.779Z,97628.94
2022-11-04T22:41:17.562Z,97634.88
2022-11-04T22:45:19.547Z,97637.22
2022-11-04T22:49:21.618Z,97633.06
2022-11-04T22:53:24.282Z,97639.13
2022-11-04T22:57:26.325Z,97642.53
2022-11-04T23:01:31.339Z,97643.38
2022-11-04T23:05:33.865Z,97646.84
2022-11-04T23:09:55.844Z,97652.94
2022-11-04T23:14:20.765Z,97653.84
2022-11-04T23:18:41.604Z,97653.84
2022-11-04T23:23:02.319Z,97652.88
2022-11-04T23:27:04.437Z,97652.53
2022-11-04T23:31:06.482Z,97660.38
2022-11-04T23:35:27.112Z,97656.00
2022-11-04T23:39:29.177Z,97668.44
2022-11-04T23:43:31.474Z,97664.81
2022-11-04T23:47:55.227Z,97676.34
2022-11-04T23:52:15.986Z,97680.94
2022-11-04T23:56:36.643Z,97686.34
